Time;durP1;ratioP1;P1;durP2;ratioP2;P2;SDS_P1;SDS_P2;PMS_P1;PMS_P2;Temp;Humidity;BMP_temperature;BMP_pressure;BME280_temperature;BME280_humidity;BME280_pressure;Samples;Min_cycle;Max_cycle;Signal;HPM_P1;HPM_P2
2023/05/17 00:00:35;;;;;;;8.23;2.10;;;10.70;16.60;;;;;;5067332;28;20473;-66
2023/05/17 00:03:02;;;;;;;5.33;1.30;;;10.70;16.30;;;;;;5067068;28;20959;-65
2023/05/17 00:05:29;;;;;;;6.60;1.50;;;10.70;16.40;;;;;;5066546;28;20493;-65
2023/05/17 00:07:57;;;;;;;10.53;1.63;;;10.70;16.60;;;;;;5066437;28;20472;-65
2023/05/17 00:10:24;;;;;;;8.33;1.63;;;10.70;16.70;;;;;;5065968;28;20484;-66
2023/05/17 00:12:50;;;;;;;7.43;1.40;;;10.60;16.50;;;;;;5064943;28;20841;-66
2023/05/17 00:15:17;;;;;;;6.87;1.63;;;10.60;16.40;;;;;;5065795;28;20461;-66
2023/05/17 00:17:44;;;;;;;4.23;1.20;;;10.60;16.90;;;;;;5061474;28;20453;-65
2023/05/17 00:20:11;;;;;;;5.80;1.40;;;10.60;16.80;;;;;;5067061;28;20493;-67
2023/05/17 00:22:39;;;;;;;4.43;1.17;;;10.60;16.90;;;;;;5065131;28;20465;-66
2023/05/17 00:25:08;;;;;;;5.00;1.40;;;10.60;17.40;;;;;;5063412;28;20535;-66
2023/05/17 00:27:34;;;;;;;5.10;1.30;;;10.60;16.90;;;;;;5065700;28;20468;-66
2023/05/17 00:30:01;;;;;;;5.57;1.37;;;10.50;17.20;;;;;;5066679;28;20480;-66
2023/05/17 00:32:28;;;;;;;8.77;1.30;;;10.50;17.10;;;;;;5058048;28;20485;-66
2023/05/17 00:34:55;;;;;;;5.60;1.20;;;10.50;16.90;;;;;;5066681;28;20460;-66
2023/05/17 00:37:21;;;;;;;6.00;1.70;;;10.50;16.90;;;;;;5060463;28;20466;-66
2023/05/17 00:39:48;;;;;;;5.20;1.50;;;10.50;17.00;;;;;;5063556;28;20480;-66
2023/05/17 00:42:16;;;;;;;4.87;1.40;;;10.40;17.10;;;;;;5067781;28;20461;-66
2023/05/17 00:44:43;;;;;;;6.93;1.60;;;10.40;17.20;;;;;;5061720;28;20457;-66
2023/05/17 00:47:09;;;;;;;6.80;2.90;;;10.40;17.30;;;;;;5065022;28;20953;-66
2023/05/17 00:49:36;;;;;;;6.83;1.60;;;10.40;17.40;;;;;;5068083;28;20457;-66
2023/05/17 00:52:03;;;;;;;8.13;1.67;;;10.40;17.00;;;;;;5064599;28;20469;-66
2023/05/17 00:54:31;;;;;;;8.00;1.90;;;10.30;17.20;;;;;;5064764;28;20952;-66
2023/05/17 00:57:00;;;;;;;5.67;2.00;;;10.40;17.30;;;;;;5061715;28;20813;-66
2023/05/17 00:59:29;;;;;;;5.90;1.43;;;10.30;17.40;;;;;;5067954;28;20473;-66
2023/05/17 01:01:56;;;;;;;6.30;1.70;;;10.40;17.30;;;;;;5066412;28;21015;-66
2023/05/17 01:04:22;;;;;;;6.70;1.77;;;10.40;17.40;;;;;;5070466;28;20971;-66
2023/05/17 01:06:50;;;;;;;5.03;1.57;;;10.30;17.50;;;;;;5066014;28;20825;-66
2023/05/17 01:09:17;;;;;;;6.90;2.00;;;10.30;18.10;;;;;;5071120;28;20523;-66
2023/05/17 01:14:32;;;;;;;6.87;1.70;;;10.30;17.60;;;;;;5682009;22;20483;-70
2023/05/17 01:17:06;;;;;;;7.50;1.60;;;10.30;17.70;;;;;;5083054;28;20476;-70
2023/05/17 01:19:49;;;;;;;7.63;1.47;;;10.30;17.60;;;;;;5080961;28;20479;-70
2023/05/17 01:22:31;;;;;;;5.63;1.50;;;10.30;17.70;;;;;;5083884;28;21008;-70
2023/05/17 01:25:10;;;;;;;5.73;1.60;;;10.30;17.90;;;;;;5082721;28;20481;-71
2023/05/17 01:27:41;;;;;;;6.00;2.00;;;10.30;17.90;;;;;;5085561;22;20499;-72
2023/05/17 01:30:11;;;;;;;6.87;1.57;;;10.30;17.90;;;;;;5068795;28;20460;-72
2023/05/17 01:32:40;;;;;;;4.53;1.20;;;10.20;17.90;;;;;;5067904;28;20477;-72
2023/05/17 01:35:08;;;;;;;8.07;1.70;;;10.20;18.10;;;;;;5064284;28;20480;-71
2023/05/17 01:37:34;;;;;;;6.33;2.20;;;10.20;18.20;;;;;;5069730;28;20932;-72
2023/05/17 01:40:01;;;;;;;6.23;1.27;;;10.20;18.00;;;;;;5066396;28;20483;-72
2023/05/17 01:42:32;;;;;;;7.40;1.73;;;10.20;18.10;;;;;;5067026;28;20464;-72
2023/05/17 01:45:06;;;;;;;10.10;1.70;;;10.20;18.20;;;;;;5068258;28;20489;-72
2023/05/17 01:47:43;;;;;;;8.87;1.90;;;10.10;18.40;;;;;;5069321;28;20457;-71
2023/05/17 01:50:12;;;;;;;6.10;2.60;;;10.10;18.60;;;;;;5066453;28;20823;-71
2023/05/17 01:52:49;;;;;;;5.77;1.57;;;10.10;18.70;;;;;;5067796;28;20465;-71
2023/05/17 01:55:24;;;;;;;6.20;1.63;;;10.00;18.80;;;;;;5068168;28;20558;-71
2023/05/17 01:57:55;;;;;;;6.77;1.50;;;10.00;18.90;;;;;;5064867;28;20473;-71
2023/05/17 02:00:25;;;;;;;6.17;1.53;;;10.00;18.70;;;;;;5063881;28;20536;-71
2023/05/17 02:02:52;;;;;;;10.67;2.57;;;10.00;18.70;;;;;;5068561;28;20499;-71
2023/05/17 02:05:19;;;;;;;6.70;1.50;;;10.00;18.70;;;;;;5068686;28;20492;-71
2023/05/17 02:07:45;;;;;;;5.83;1.67;;;10.00;18.70;;;;;;5065648;28;20468;-71
2023/05/17 02:10:13;;;;;;;4.93;1.63;;;10.00;18.70;;;;;;5069831;28;20492;-71
2023/05/17 02:12:39;;;;;;;8.70;1.70;;;10.00;18.70;;;;;;5066390;28;20464;-71
2023/05/17 02:15:10;;;;;;;6.27;1.97;;;9.90;18.70;;;;;;5068915;28;20473;-71
2023/05/17 02:17:39;;;;;;;5.30;1.60;;;9.90;18.50;;;;;;5065752;28;20453;-71
2023/05/17 02:20:07;;;;;;;5.77;1.90;;;9.90;18.50;;;;;;5067304;28;20477;-71
2023/05/17 02:22:34;;;;;;;5.00;1.30;;;9.90;18.60;;;;;;5067810;28;20480;-71
2023/05/17 02:25:00;;;;;;;5.77;1.30;;;9.90;18.60;;;;;;5067342;28;20485;-72
2023/05/17 02:27:27;;;;;;;5.37;1.70;;;9.90;18.60;;;;;;5067470;28;20461;-71
2023/05/17 02:29:54;;;;;;;7.63;1.73;;;9.90;18.80;;;;;;5062930;28;20453;-71
2023/05/17 02:32:20;;;;;;;8.70;1.40;;;9.90;18.90;;;;;;5067568;28;20473;-72
2023/05/17 02:34:48;;;;;;;7.80;2.60;;;9.90;19.00;;;;;;5062819;28;20483;-71
2023/05/17 02:37:15;;;;;;;5.40;1.30;;;9.90;18.80;;;;;;5064282;28;20991;-71
2023/05/17 02:39:42;;;;;;;6.27;1.57;;;9.90;19.00;;;;;;5062274;28;20563;-71
2023/05/17 02:42:08;;;;;;;5.70;1.47;;;9.90;18.90;;;;;;5061039;28;20472;-71
2023/05/17 02:44:35;;;;;;;6.90;2.30;;;9.90;18.90;;;;;;5065071;28;20956;-71
2023/05/17 02:47:02;;;;;;;5.63;1.60;;;9.90;19.00;;;;;;5061220;28;20457;-71
2023/05/17 02:49:28;;;;;;;10.10;1.83;;;9.80;19.00;;;;;;5068169;28;20469;-71
2023/05/17 02:51:56;;;;;;;7.40;1.77;;;9.80;19.10;;;;;;5066303;28;20471;-71
2023/05/17 02:54:23;;;;;;;8.97;1.80;;;9.80;19.00;;;;;;5066269;28;20481;-71
2023/05/17 02:56:50;;;;;;;8.03;1.80;;;9.90;19.10;;;;;;5067283;28;20465;-71
2023/05/17 02:59:17;;;;;;;5.27;1.53;;;9.80;19.30;;;;;;5064902;28;20507;-71
2023/05/17 03:01:43;;;;;;;9.00;2.03;;;9.80;19.30;;;;;;5065589;28;20476;-72
2023/05/17 03:04:10;;;;;;;10.30;2.33;;;9.80;19.30;;;;;;5065275;28;20546;-72
2023/05/17 03:06:37;;;;;;;5.97;1.53;;;9.80;19.40;;;;;;5064439;28;20473;-72
2023/05/17 03:09:06;;;;;;;7.77;1.80;;;9.90;19.60;;;;;;5060097;28;20464;-72
2023/05/17 03:11:32;;;;;;;4.80;1.13;;;9.80;19.70;;;;;;5067409;28;20488;-72
2023/05/17 03:13:59;;;;;;;5.60;1.90;;;9.80;19.80;;;;;;5065164;28;20504;-72
2023/05/17 03:16:26;;;;;;;5.50;1.90;;;9.80;20.00;;;;;;5063462;28;21133;-72
2023/05/17 03:18:53;;;;;;;4.47;1.93;;;9.80;20.00;;;;;;5060215;28;20468;-71
2023/05/17 03:21:19;;;;;;;5.37;2.00;;;9.80;20.20;;;;;;5061209;28;20473;-71
2023/05/17 03:23:46;;;;;;;6.27;1.90;;;9.70;20.40;;;;;;5066312;28;20892;-71
2023/05/17 03:26:14;;;;;;;6.17;1.90;;;9.70;20.50;;;;;;5061351;28;20465;-72
2023/05/17 03:28:41;;;;;;;6.70;1.87;;;9.70;20.70;;;;;;5064098;28;20469;-71
2023/05/17 03:31:08;;;;;;;6.00;2.00;;;9.70;20.70;;;;;;5061612;28;21607;-72
2023/05/17 03:33:35;;;;;;;9.00;1.63;;;9.70;20.50;;;;;;5056449;28;20996;-72
2023/05/17 03:36:01;;;;;;;8.70;1.60;;;9.60;20.40;;;;;;5060001;28;20462;-73
2023/05/17 03:38:28;;;;;;;5.80;1.50;;;9.60;20.50;;;;;;5065303;28;20461;-73
2023/05/17 03:40:55;;;;;;;5.70;1.80;;;9.60;20.50;;;;;;5063601;28;20473;-73
2023/05/17 03:43:23;;;;;;;5.63;1.20;;;9.60;20.40;;;;;;5063635;28;20488;-72
2023/05/17 03:45:49;;;;;;;6.87;1.73;;;9.50;20.50;;;;;;5064273;28;20472;-73
2023/05/17 03:48:16;;;;;;;7.03;1.63;;;9.50;20.40;;;;;;5064095;28;20456;-73
2023/05/17 03:50:43;;;;;;;5.95;1.40;;;9.50;20.40;;;;;;5063369;28;20897;-72
2023/05/17 03:53:10;;;;;;;5.77;1.60;;;9.50;20.80;;;;;;5061408;28;20207;-72
2023/05/17 03:55:36;;;;;;;7.77;1.77;;;9.50;20.50;;;;;;5066689;28;21227;-73
2023/05/17 03:58:03;;;;;;;7.43;1.97;;;9.50;20.50;;;;;;5058415;28;20471;-73
2023/05/17 04:00:31;;;;;;;8.23;2.40;;;9.50;20.50;;;;;;5061063;28;20567;-73
2023/05/17 04:02:58;;;;;;;7.20;1.73;;;9.50;20.40;;;;;;5062007;28;20461;-73
2023/05/17 04:05:25;;;;;;;6.13;1.67;;;9.50;20.50;;;;;;5057547;28;20485;-72
2023/05/17 04:07:52;;;;;;;7.10;1.50;;;9.50;20.30;;;;;;5061358;28;20659;-72
2023/05/17 04:10:19;;;;;;;5.63;1.40;;;9.50;20.30;;;;;;5063972;28;20446;-73
2023/05/17 04:12:45;;;;;;;5.60;1.50;;;9.50;20.40;;;;;;5063259;28;20457;-73
2023/05/17 04:15:12;;;;;;;6.30;1.67;;;9.60;20.40;;;;;;5058545;28;20875;-73
2023/05/17 04:17:40;;;;;;;9.33;2.00;;;9.60;20.30;;;;;;5067316;28;20449;-73
2023/05/17 04:20:08;;;;;;;6.27;2.07;;;9.60;20.20;;;;;;5059817;28;20885;-73
2023/05/17 04:22:34;;;;;;;6.40;1.50;;;9.60;20.30;;;;;;5061587;28;20452;-73
2023/05/17 04:25:02;;;;;;;4.93;1.50;;;9.60;20.30;;;;;;5062301;28;20478;-72
2023/05/17 04:27:29;;;;;;;7.50;2.00;;;9.60;20.30;;;;;;5062211;28;20475;-72
2023/05/17 04:29:56;;;;;;;10.00;1.77;;;9.70;20.30;;;;;;5060712;28;20475;-73
2023/05/17 04:32:22;;;;;;;7.63;1.70;;;9.70;20.30;;;;;;5066137;28;20483;-71
2023/05/17 04:34:51;;;;;;;7.67;2.20;;;9.80;20.20;;;;;;5058855;28;20479;-71
2023/05/17 04:37:17;;;;;;;5.57;1.50;;;9.80;20.00;;;;;;5067774;28;20469;-73
2023/05/17 04:39:44;;;;;;;6.97;1.43;;;9.90;19.90;;;;;;5068462;28;20805;-73
2023/05/17 04:42:11;;;;;;;6.43;1.87;;;9.90;19.80;;;;;;5067885;28;20480;-73
2023/05/17 04:44:38;;;;;;;7.90;1.27;;;10.00;19.60;;;;;;5067066;28;20554;-73
2023/05/17 04:47:05;;;;;;;8.53;2.63;;;10.00;19.60;;;;;;5069294;28;20480;-73
2023/05/17 04:49:32;;;;;;;7.47;2.10;;;10.10;19.30;;;;;;5068863;28;20461;-73
2023/05/17 04:52:00;;;;;;;4.70;1.80;;;10.20;19.00;;;;;;5069106;28;20473;-73
2023/05/17 04:54:26;;;;;;;6.90;1.80;;;10.40;18.50;;;;;;5071136;28;20491;-73
2023/05/17 04:56:53;;;;;;;8.87;1.90;;;10.60;18.00;;;;;;5070954;28;20495;-74
2023/05/17 04:59:20;;;;;;;7.20;2.00;;;10.80;17.90;;;;;;5068760;28;21019;-73
2023/05/17 05:01:46;;;;;;;4.83;1.53;;;11.00;17.50;;;;;;5065473;28;20497;-73
2023/05/17 05:04:13;;;;;;;7.90;1.73;;;11.30;17.00;;;;;;5065345;28;20489;-73
2023/05/17 05:06:40;;;;;;;6.07;1.57;;;12.10;16.20;;;;;;5064013;28;20461;-73
2023/05/17 05:09:08;;;;;;;8.90;1.50;;;13.00;14.10;;;;;;5067130;28;21017;-72
2023/05/17 05:11:35;;;;;;;3.90;1.20;;;13.40;12.70;;;;;;5067804;28;20456;-72
2023/05/17 05:14:02;;;;;;;6.77;1.53;;;13.70;11.70;;;;;;5061987;28;20980;-72
2023/05/17 05:16:29;;;;;;;5.60;1.70;;;14.20;11.20;;;;;;5068672;28;20475;-73
2023/05/17 05:18:56;;;;;;;4.70;1.37;;;14.70;10.10;;;;;;5067845;28;20476;-72
2023/05/17 05:21:22;;;;;;;6.47;1.77;;;15.10;9.00;;;;;;5066082;28;20493;-73
2023/05/17 05:23:49;;;;;;;5.60;1.30;;;15.20;8.40;;;;;;5068070;28;20844;-72
2023/05/17 05:26:17;;;;;;;7.13;1.27;;;15.20;8.00;;;;;;5067637;28;20462;-72
2023/05/17 05:28:44;;;;;;;8.30;1.53;;;15.00;8.40;;;;;;5065843;28;20469;-72
2023/05/17 05:31:11;;;;;;;6.37;1.83;;;14.90;8.50;;;;;;5066987;28;20473;-72
2023/05/17 05:33:37;;;;;;;7.77;1.70;;;14.60;8.60;;;;;;5066566;28;20488;-73
2023/05/17 05:36:05;;;;;;;5.30;1.20;;;14.50;9.00;;;;;;5066983;28;20831;-72
2023/05/17 05:38:31;;;;;;;5.53;1.30;;;14.40;9.00;;;;;;5070691;28;20518;-72
2023/05/17 05:40:58;;;;;;;5.60;1.40;;;14.30;9.30;;;;;;5068010;28;21007;-72
2023/05/17 05:43:26;;;;;;;6.50;1.60;;;14.30;9.40;;;;;;5065950;28;20474;-72
2023/05/17 05:45:53;;;;;;;8.93;2.23;;;14.20;9.60;;;;;;5067864;28;20456;-72
2023/05/17 05:48:19;;;;;;;6.17;1.73;;;14.20;9.80;;;;;;5066918;28;20842;-72
2023/05/17 05:50:46;;;;;;;12.13;2.60;;;14.20;10.00;;;;;;5068391;28;20510;-72
2023/05/17 05:53:13;;;;;;;7.47;1.90;;;14.20;10.10;;;;;;5068205;28;20808;-73
2023/05/17 05:55:41;;;;;;;7.50;1.93;;;14.30;10.30;;;;;;5068027;28;20457;-72
2023/05/17 05:58:07;;;;;;;11.00;1.60;;;14.30;9.80;;;;;;5067363;28;20810;-71
2023/05/17 06:00:36;;;;;;;7.53;2.10;;;14.30;9.80;;;;;;5058950;28;20477;-72
2023/05/17 06:03:03;;;;;;;9.60;2.00;;;14.30;9.80;;;;;;5060063;28;20466;-72
2023/05/17 06:05:29;;;;;;;6.57;2.00;;;14.30;9.90;;;;;;5068781;28;20461;-71
2023/05/17 06:07:56;;;;;;;8.03;1.80;;;14.30;9.50;;;;;;5067918;28;20483;-72
2023/05/17 06:10:23;;;;;;;8.53;1.73;;;14.30;9.50;;;;;;5066055;28;20468;-73
2023/05/17 06:12:50;;;;;;;7.10;2.10;;;14.40;9.70;;;;;;5066199;28;20510;-72
2023/05/17 06:15:17;;;;;;;12.37;2.20;;;14.40;9.60;;;;;;5067257;28;20489;-72
2023/05/17 06:17:45;;;;;;;7.30;1.97;;;14.50;9.90;;;;;;5070189;28;20483;-72
2023/05/17 06:20:12;;;;;;;7.23;1.77;;;14.50;9.90;;;;;;5063839;28;20460;-73
2023/05/17 06:22:38;;;;;;;6.53;2.20;;;14.60;9.70;;;;;;5069180;28;20841;-73
2023/05/17 06:25:06;;;;;;;7.93;2.00;;;14.70;9.70;;;;;;5067101;28;20489;-73
2023/05/17 06:27:33;;;;;;;8.33;3.03;;;14.80;9.60;;;;;;5066775;28;20476;-72
2023/05/17 06:30:00;;;;;;;7.80;2.30;;;15.00;9.00;;;;;;5061859;28;20490;-72
2023/05/17 06:32:26;;;;;;;7.67;1.70;;;15.50;8.70;;;;;;5063507;28;20493;-72
2023/05/17 06:34:55;;;;;;;10.93;2.37;;;16.10;8.00;;;;;;5063851;28;20481;-73
2023/05/17 06:37:22;;;;;;;13.47;2.00;;;17.00;6.30;;;;;;5067004;28;20494;-73
2023/05/17 06:39:51;;;;;;;5.90;1.70;;;17.90;5.10;;;;;;5068276;28;20488;-73
2023/05/17 06:42:18;;;;;;;6.20;1.97;;;18.70;3.40;;;;;;5066258;28;20509;-73
2023/05/17 06:44:45;;;;;;;6.93;1.80;;;19.40;2.40;;;;;;5067942;28;20481;-74
2023/05/17 06:47:11;;;;;;;6.17;1.70;;;20.30;1.10;;;;;;5067941;28;20465;-73
2023/05/17 06:49:38;;;;;;;7.43;1.87;;;21.30;1.00;;;;;;5067918;28;20469;-73
2023/05/17 06:52:06;;;;;;;11.10;1.90;;;22.30;1.00;;;;;;5067888;28;20498;-74
2023/05/17 06:54:33;;;;;;;5.53;1.43;;;23.00;1.00;;;;;;5066137;28;20496;-74
2023/05/17 06:57:01;;;;;;;10.00;1.97;;;23.30;1.00;;;;;;5066794;28;20476;-74
2023/05/17 06:59:27;;;;;;;6.87;2.20;;;23.50;1.00;;;;;;5068096;28;20457;-73
2023/05/17 07:01:55;;;;;;;5.60;2.00;;;23.80;1.00;;;;;;5065687;28;20474;-74
2023/05/17 07:04:22;;;;;;;10.37;1.90;;;24.20;1.00;;;;;;5068249;28;20485;-73
2023/05/17 07:06:48;;;;;;;8.37;2.00;;;24.20;1.00;;;;;;5065975;28;20461;-73
2023/05/17 07:09:16;;;;;;;6.23;2.57;;;24.30;1.00;;;;;;5068653;28;20947;-73
2023/05/17 07:11:43;;;;;;;7.23;2.50;;;24.50;1.00;;;;;;5069463;28;20453;-73
2023/05/17 07:14:10;;;;;;;5.83;1.90;;;24.90;1.00;;;;;;5068152;28;20871;-73
2023/05/17 07:16:36;;;;;;;6.20;1.63;;;25.40;1.00;;;;;;5068864;28;20948;-73
2023/05/17 07:19:03;;;;;;;6.43;1.63;;;25.70;1.00;;;;;;5068354;28;20452;-74
2023/05/17 07:21:30;;;;;;;7.10;1.67;;;26.20;1.00;;;;;;5069914;28;20477;-73
2023/05/17 07:23:57;;;;;;;7.10;1.70;;;26.90;1.00;;;;;;5070077;28;20534;-74
2023/05/17 07:26:25;;;;;;;5.60;2.17;;;27.40;1.00;;;;;;5062432;28;20458;-74
2023/05/17 07:28:52;;;;;;;5.60;1.60;;;27.60;1.00;;;;;;5068912;28;20828;-74
2023/05/17 07:31:19;;;;;;;6.70;2.03;;;28.20;1.00;;;;;;5067963;28;20988;-73
2023/05/17 07:33:45;;;;;;;5.10;1.70;;;28.40;1.00;;;;;;5068481;28;20477;-73
2023/05/17 07:36:12;;;;;;;4.70;1.60;;;28.70;1.00;;;;;;5068704;28;20467;-74
2023/05/17 07:38:39;;;;;;;5.93;1.77;;;29.10;1.00;;;;;;5069211;28;21039;-74
2023/05/17 07:41:08;;;;;;;7.10;1.93;;;29.50;1.00;;;;;;5067451;28;20859;-74
2023/05/17 07:43:36;;;;;;;7.97;2.10;;;29.80;1.00;;;;;;5063236;28;20488;-74
2023/05/17 07:46:03;;;;;;;4.67;1.90;;;29.60;1.00;;;;;;5067108;28;20461;-73
2023/05/17 07:48:31;;;;;;;7.33;1.90;;;29.50;1.00;;;;;;5065919;28;20850;-74
2023/05/17 07:50:57;;;;;;;7.30;2.30;;;29.60;1.00;;;;;;5065767;28;20820;-73
2023/05/17 07:53:24;;;;;;;9.57;1.97;;;29.40;1.00;;;;;;5061283;28;20476;-74
2023/05/17 07:55:51;;;;;;;5.60;1.90;;;30.00;1.00;;;;;;5067162;28;20468;-74
2023/05/17 07:58:17;;;;;;;9.87;2.10;;;31.10;1.00;;;;;;5067121;28;20489;-74
2023/05/17 08:00:45;;;;;;;6.10;1.90;;;32.60;1.00;;;;;;5067628;22;20441;-74
2023/05/17 08:03:12;;;;;;;6.07;1.57;;;34.20;1.00;;;;;;5059386;28;20548;-73
2023/05/17 08:05:41;;;;;;;6.63;2.10;;;35.80;1.00;;;;;;5068039;28;20459;-74
2023/05/17 08:08:07;;;;;;;5.70;2.03;;;36.20;1.00;;;;;;5062942;28;20853;-74
2023/05/17 08:10:36;;;;;;;8.27;2.27;;;36.80;1.00;;;;;;5063375;28;20481;-74
2023/05/17 08:13:03;;;;;;;5.70;2.40;;;36.50;1.00;;;;;;5078505;22;20632;-73
2023/05/17 08:15:30;;;;;;;7.63;2.50;;;37.10;1.00;;;;;;5079097;28;20461;-74
2023/05/17 08:17:58;;;;;;;5.40;1.80;;;38.30;1.00;;;;;;5083745;28;20950;-73
2023/05/17 08:20:24;;;;;;;5.77;1.80;;;39.20;1.00;;;;;;5085334;28;20465;-74
2023/05/17 08:22:51;;;;;;;4.83;1.87;;;40.60;1.00;;;;;;5077149;28;21001;-74
2023/05/17 08:25:19;;;;;;;4.80;1.50;;;41.60;1.00;;;;;;5080546;28;20456;-74
2023/05/17 08:27:46;;;;;;;6.70;3.17;;;42.10;1.00;;;;;;5079347;28;20978;-74
2023/05/17 08:30:14;;;;;;;8.87;2.20;;;42.10;1.00;;;;;;5083751;22;20863;-67
2023/05/17 08:32:41;;;;;;;7.17;2.20;;;42.30;1.00;;;;;;5067201;28;20480;-67
2023/05/17 08:35:09;;;;;;;5.60;1.60;;;42.20;1.00;;;;;;5062499;28;20461;-67
2023/05/17 08:37:36;;;;;;;13.17;2.73;;;42.00;1.00;;;;;;5062442;28;21236;-67
2023/05/17 08:40:03;;;;;;;6.87;2.03;;;41.50;1.00;;;;;;5065003;28;20457;-68
2023/05/17 08:42:30;;;;;;;6.73;2.00;;;41.40;1.00;;;;;;5067453;28;20959;-68
2023/05/17 08:44:57;;;;;;;6.63;2.53;;;40.80;1.00;;;;;;5066765;28;20840;-68
2023/05/17 08:47:28;;;;;;;8.03;2.37;;;40.60;1.00;;;;;;5066453;28;20800;-68
2023/05/17 08:49:58;;;;;;;6.10;1.90;;;40.20;1.00;;;;;;5067681;28;20548;-67
2023/05/17 08:52:29;;;;;;;7.83;2.30;;;38.40;1.00;;;;;;5060660;28;20508;-67
2023/05/17 08:54:56;;;;;;;5.87;2.00;;;38.30;1.00;;;;;;5066620;28;20461;-68
2023/05/17 08:57:25;;;;;;;6.33;2.40;;;39.40;1.00;;;;;;5066686;28;20461;-67
2023/05/17 08:59:52;;;;;;;5.73;1.87;;;40.60;1.00;;;;;;5061742;28;20468;-68
2023/05/17 09:02:20;;;;;;;5.90;1.87;;;41.80;1.00;;;;;;5062411;28;20519;-68
2023/05/17 09:04:54;;;;;;;4.47;1.90;;;42.00;1.00;;;;;;5058291;28;20517;-68
2023/05/17 09:07:21;;;;;;;5.70;1.90;;;40.90;1.00;;;;;;5057170;28;20472;-68
2023/05/17 09:09:51;;;;;;;8.30;2.27;;;41.60;1.00;;;;;;5062924;28;20460;-68
2023/05/17 09:12:18;;;;;;;7.10;2.10;;;42.90;1.00;;;;;;5064700;28;20488;-68
2023/05/17 09:14:45;;;;;;;5.27;1.80;;;43.60;1.00;;;;;;5066564;28;20830;-68
2023/05/17 09:17:14;;;;;;;4.97;1.80;;;42.80;1.00;;;;;;5065372;28;20457;-68
2023/05/17 09:19:45;;;;;;;7.17;1.80;;;42.60;1.00;;;;;;5061501;28;20461;-68
2023/05/17 09:22:13;;;;;;;6.60;2.33;;;43.80;1.00;;;;;;5061151;28;20487;-68
2023/05/17 09:24:40;;;;;;;6.57;2.20;;;44.80;1.00;;;;;;5057705;28;20481;-68
2023/05/17 09:27:09;;;;;;;6.10;1.93;;;45.00;1.00;;;;;;5069656;28;20488;-68
2023/05/17 09:29:39;;;;;;;8.17;1.83;;;44.80;1.00;;;;;;5065406;28;21259;-68
2023/05/17 09:32:16;;;;;;;4.67;1.70;;;44.00;1.00;;;;;;5069809;28;20457;-67
2023/05/17 09:34:45;;;;;;;5.03;1.40;;;43.70;1.00;;;;;;5055885;28;20462;-68
2023/05/17 09:37:14;;;;;;;5.17;1.93;;;43.80;1.00;;;;;;5061385;28;21011;-68
2023/05/17 09:39:41;;;;;;;5.83;1.57;;;43.30;1.00;;;;;;5063689;28;20497;-68
2023/05/17 09:42:09;;;;;;;7.67;1.80;;;41.60;1.00;;;;;;5063928;28;20478;-68
2023/05/17 09:44:50;;;;;;;4.83;1.50;;;41.00;1.00;;;;;;5060853;28;20545;-67
2023/05/17 09:47:25;;;;;;;5.40;1.57;;;40.10;1.00;;;;;;5066709;28;20470;-67
2023/05/17 09:49:53;;;;;;;6.90;1.80;;;37.60;1.00;;;;;;5060494;28;20471;-66
2023/05/17 09:52:20;;;;;;;6.67;1.87;;;34.80;1.00;;;;;;5070281;28;20473;-66
2023/05/17 09:54:54;;;;;;;4.60;1.47;;;32.30;1.00;;;;;;5069003;28;20453;-66
2023/05/17 09:57:23;;;;;;;5.60;1.70;;;29.90;1.00;;;;;;5061689;28;20477;-66
2023/05/17 09:59:50;;;;;;;6.63;1.50;;;28.10;1.00;;;;;;5064572;28;20457;-66
2023/05/17 10:02:22;;;;;;;6.43;1.80;;;26.60;1.00;;;;;;5064570;28;20472;-66
2023/05/17 10:04:50;;;;;;;5.50;1.93;;;25.40;1.00;;;;;;5065447;28;20496;-67
2023/05/17 10:07:20;;;;;;;6.50;2.30;;;24.30;1.00;;;;;;5064344;28;20489;-65
2023/05/17 10:09:47;;;;;;;5.80;1.93;;;23.50;1.00;;;;;;5062017;28;20921;-65
2023/05/17 10:12:17;;;;;;;8.13;2.17;;;23.10;1.00;;;;;;5064664;28;20473;-65
2023/05/17 10:14:46;;;;;;;7.23;2.20;;;23.00;1.00;;;;;;5064589;28;20460;-66
2023/05/17 10:17:13;;;;;;;7.53;2.20;;;22.90;1.00;;;;;;5067772;28;20534;-65
2023/05/17 10:19:41;;;;;;;6.10;1.70;;;22.50;1.00;;;;;;5065465;28;20511;-66
2023/05/17 10:22:08;;;;;;;6.80;2.23;;;22.30;1.00;;;;;;5067049;28;20496;-65
2023/05/17 10:24:36;;;;;;;4.40;1.70;;;22.30;1.00;;;;;;5060135;28;20454;-65
2023/05/17 10:27:03;;;;;;;6.20;2.03;;;22.30;1.00;;;;;;5068280;28;20488;-66
2023/05/17 10:29:31;;;;;;;6.40;2.40;;;22.40;1.00;;;;;;5067391;28;20685;-66
2023/05/17 10:32:03;;;;;;;6.23;2.37;;;22.20;1.00;;;;;;5065765;28;20457;-65
2023/05/17 10:34:31;;;;;;;6.87;2.87;;;21.90;1.00;;;;;;5068763;28;20453;-65
2023/05/17 10:36:59;;;;;;;6.47;2.77;;;21.60;1.00;;;;;;5063688;28;20454;-65
2023/05/17 10:39:26;;;;;;;6.97;2.67;;;21.40;1.00;;;;;;5067407;28;20465;-66
2023/05/17 10:41:54;;;;;;;7.13;2.63;;;21.20;1.00;;;;;;5065863;28;20477;-65
2023/05/17 10:44:22;;;;;;;7.23;2.53;;;21.10;1.00;;;;;;5062330;28;20857;-66
2023/05/17 10:46:54;;;;;;;7.00;2.73;;;20.80;1.00;;;;;;5061308;28;20823;-65
2023/05/17 10:49:25;;;;;;;6.27;2.73;;;20.60;1.00;;;;;;5062337;28;20486;-65
2023/05/17 10:51:52;;;;;;;6.97;2.70;;;20.30;1.00;;;;;;5062508;28;21124;-65
2023/05/17 10:54:19;;;;;;;5.40;2.27;;;20.10;1.00;;;;;;5061859;28;20469;-65
2023/05/17 10:56:51;;;;;;;5.07;1.83;;;20.10;1.00;;;;;;5065194;28;20987;-65
2023/05/17 10:59:21;;;;;;;7.17;2.77;;;20.10;1.00;;;;;;5066509;28;20464;-65
2023/05/17 11:01:57;;;;;;;7.97;2.20;;;20.10;1.00;;;;;;5063741;28;20501;-65
2023/05/17 11:04:26;;;;;;;6.93;2.70;;;20.10;1.00;;;;;;5064615;28;20471;-65
2023/05/17 11:06:56;;;;;;;6.43;2.50;;;20.10;1.00;;;;;;5066280;28;20457;-65
2023/05/17 11:09:23;;;;;;;5.50;2.33;;;20.20;1.00;;;;;;5064658;28;20564;-65
2023/05/17 11:12:07;;;;;;;7.30;2.57;;;20.20;1.00;;;;;;5068589;28;20515;-65
2023/05/17 11:14:58;;;;;;;6.60;2.40;;;20.20;1.00;;;;;;5067425;28;20461;-65
2023/05/17 11:17:27;;;;;;;6.73;2.60;;;20.30;1.00;;;;;;5044802;28;20461;-65
2023/05/17 11:20:02;;;;;;;6.87;3.00;;;20.30;1.00;;;;;;5064197;28;20453;-65
2023/05/17 11:22:36;;;;;;;7.93;3.10;;;20.10;1.00;;;;;;5065654;28;20893;-65
2023/05/17 11:25:07;;;;;;;6.20;2.50;;;20.00;1.00;;;;;;5067583;28;20457;-65
2023/05/17 11:27:37;;;;;;;6.63;2.23;;;20.00;1.00;;;;;;5058957;28;21086;-65
2023/05/17 11:30:21;;;;;;;5.80;2.13;;;19.90;1.00;;;;;;5064004;28;20470;-65
2023/05/17 11:32:50;;;;;;;6.80;2.60;;;19.90;1.00;;;;;;5060961;28;20973;-65
2023/05/17 11:35:23;;;;;;;6.30;2.83;;;19.80;1.00;;;;;;5064988;28;20472;-65
2023/05/17 11:37:52;;;;;;;6.80;2.80;;;19.90;1.00;;;;;;5066307;28;20465;-65
2023/05/17 11:40:26;;;;;;;6.80;2.93;;;19.70;1.00;;;;;;5061747;28;20504;-66
2023/05/17 11:43:12;;;;;;;7.27;3.23;;;19.70;1.00;;;;;;5059494;28;20511;-66
2023/05/17 11:45:47;;;;;;;6.93;2.70;;;19.70;1.00;;;;;;5064267;28;20501;-66
2023/05/17 11:48:15;;;;;;;6.10;2.53;;;19.60;1.00;;;;;;5059899;28;20494;-66
2023/05/17 11:50:45;;;;;;;6.43;2.50;;;19.70;1.00;;;;;;5065069;28;20461;-66
2023/05/17 11:53:12;;;;;;;7.20;2.10;;;19.70;1.00;;;;;;5056592;28;20473;-66
2023/05/17 11:55:41;;;;;;;8.43;2.40;;;19.70;1.00;;;;;;5058533;28;20473;-66
2023/05/17 11:58:09;;;;;;;8.43;3.57;;;19.80;1.00;;;;;;5058420;28;20462;-66
2023/05/17 12:00:37;;;;;;;6.40;2.80;;;19.90;1.00;;;;;;5065474;28;20461;-66
2023/05/17 12:03:22;;;;;;;5.77;3.10;;;20.00;1.00;;;;;;5062638;28;20481;-66
2023/05/17 12:05:52;;;;;;;6.30;2.00;;;20.00;1.00;;;;;;5066034;28;20453;-66
2023/05/17 12:08:20;;;;;;;5.80;2.30;;;20.00;1.00;;;;;;5065197;28;20453;-66
2023/05/17 12:10:48;;;;;;;7.53;2.90;;;19.90;1.00;;;;;;5065839;28;20457;-66
2023/05/17 12:13:15;;;;;;;5.40;2.70;;;19.80;1.00;;;;;;5065603;28;20485;-66
2023/05/17 12:15:45;;;;;;;8.37;2.80;;;19.50;1.00;;;;;;5061456;28;20461;-66
2023/05/17 12:18:12;;;;;;;7.27;2.63;;;19.40;1.00;;;;;;5063989;28;20458;-66
2023/05/17 12:20:39;;;;;;;6.63;2.77;;;19.40;1.00;;;;;;5060008;28;20465;-66
2023/05/17 12:23:07;;;;;;;6.03;2.20;;;19.50;1.00;;;;;;5059934;28;20484;-66
2023/05/17 12:25:33;;;;;;;6.80;2.60;;;19.50;1.00;;;;;;5064180;28;20472;-68
2023/05/17 12:28:13;;;;;;;7.33;2.73;;;19.70;1.00;;;;;;5061106;28;21453;-66
2023/05/17 12:30:40;;;;;;;5.40;2.73;;;19.80;1.00;;;;;;5061763;28;20491;-66
2023/05/17 12:33:07;;;;;;;5.77;2.73;;;19.80;1.00;;;;;;5059798;28;20992;-66
2023/05/17 12:35:34;;;;;;;6.70;2.53;;;19.80;1.00;;;;;;5063823;28;20453;-66
2023/05/17 12:38:01;;;;;;;7.77;2.60;;;19.70;1.00;;;;;;5062202;28;20463;-66
2023/05/17 12:40:30;;;;;;;5.80;2.90;;;19.50;1.00;;;;;;5059824;28;20450;-66
2023/05/17 12:43:01;;;;;;;7.23;3.17;;;19.40;1.00;;;;;;5059909;28;20495;-66
2023/05/17 12:45:28;;;;;;;6.60;2.70;;;19.20;1.00;;;;;;5065205;28;20518;-66
2023/05/17 12:47:55;;;;;;;5.87;2.57;;;19.20;1.00;;;;;;5064975;28;20975;-66
2023/05/17 12:50:25;;;;;;;8.30;3.00;;;19.30;1.00;;;;;;5063745;28;20457;-66
2023/05/17 12:52:52;;;;;;;6.60;3.37;;;19.30;1.00;;;;;;5062058;28;20480;-66
2023/05/17 12:55:19;;;;;;;7.60;3.00;;;19.20;1.00;;;;;;5063226;28;20461;-66
2023/05/17 12:57:50;;;;;;;7.60;3.00;;;19.00;1.00;;;;;;5065874;28;20466;-68
2023/05/17 13:00:18;;;;;;;13.70;3.17;;;18.70;1.00;;;;;;5069199;28;20456;-66
2023/05/17 13:02:45;;;;;;;7.43;3.30;;;18.40;1.00;;;;;;5062824;28;20863;-66